Walla Walla, Washington
Current Conditions -  °F | °C
As of 1:53 AM on Friday 31 Oct 2014 (Local Time) from KALW Reporting Station
Clear Clear  
Wind Chill: 12°   Ceiling: Unl
Heat Index: 12°   Visibility: 7mi
Dew Point:   Wind: 7mph
Humidity: 83%   Direction: 180°S
Pressure: 29.8"   Gusts: NA
Location:  46.07°N, 118.34°W
Report Text: KALW 310853Z AUTO 18006KT 7SM CLR 12/09 A2980 RMK AO2 SLP090 T01170089 58007
Loading
Personal Weather Stations






























Interactive Weather Map
Tropical Storm Tracking
New forecast layout! Learn more

10-Day Weather Forecast

Advertisements
Track Severe Weather on mobile